Time;durP1;ratioP1;P1;durP2;ratioP2;P2;SDS_P1;SDS_P2;PMS_P1;PMS_P2;Temp;Humidity;BMP_temperature;BMP_pressure;BME280_temperature;BME280_humidity;BME280_pressure;Samples;Min_cycle;Max_cycle;Signal;HPM_P1;HPM_P2
2021/07/13 00:00:35;;;;;;;;;;;19.40;99.90;;;;;;5044278;28;20304;-78
2021/07/13 00:03:02;;;;;;;;;;;19.30;99.90;;;;;;5032763;28;20317;-78
2021/07/13 00:05:28;;;;;;;;;;;19.30;99.90;;;;;;5033313;28;19913;-77
2021/07/13 00:07:54;;;;;;;;;;;19.30;99.90;;;;;;5048952;28;19921;-78
2021/07/13 00:10:21;;;;;;;;;;;19.30;99.90;;;;;;5033911;28;19917;-82
2021/07/13 00:12:47;;;;;;;;;;;19.20;99.90;;;;;;5033924;28;19917;-78
2021/07/13 00:15:15;;;;;;;;;;;19.10;99.90;;;;;;5017042;28;19920;-81
2021/07/13 00:17:40;;;;;;;;;;;19.10;99.90;;;;;;5033784;28;19917;-78
2021/07/13 00:20:07;;;;;;;;;;;19.20;99.90;;;;;;5033013;28;19995;-78
2021/07/13 00:22:33;;;;;;;;;;;19.30;99.90;;;;;;5023666;28;20076;-78
2021/07/13 00:24:58;;;;;;;;;;;19.50;99.90;;;;;;5013646;28;20602;-78
2021/07/13 00:27:24;;;;;;;;;;;19.60;99.90;;;;;;5033459;28;19917;-78
2021/07/13 00:29:50;;;;;;;;;;;19.60;99.90;;;;;;5012985;28;19929;-78
2021/07/13 00:32:15;;;;;;;;;;;19.70;99.90;;;;;;5033091;28;19917;-77
2021/07/13 00:34:41;;;;;;;;;;;19.70;99.90;;;;;;5032764;28;20311;-77
2021/07/13 00:37:06;;;;;;;;;;;19.70;99.90;;;;;;5031911;28;19914;-77
2021/07/13 00:39:32;;;;;;;;;;;19.70;99.90;;;;;;5034026;28;19917;-78
2021/07/13 00:41:57;;;;;;;;;;;19.70;99.90;;;;;;5031903;28;19917;-79
2021/07/13 00:44:24;;;;;;;;;;;19.80;99.90;;;;;;5028674;28;19914;-78
2021/07/13 00:46:49;;;;;;;;;;;19.90;99.90;;;;;;5028795;28;19914;-77
2021/07/13 00:49:17;;;;;;;;;;;19.90;99.90;;;;;;5019129;28;20375;-77
2021/07/13 00:51:46;;;;;;;;;;;20.00;99.90;;;;;;5020857;28;19949;-78
2021/07/13 00:54:11;;;;;;;;;;;19.90;99.90;;;;;;5037050;28;20326;-77
2021/07/13 00:56:38;;;;;;;;;;;20.00;99.90;;;;;;5037500;28;19921;-77
2021/07/13 00:59:04;;;;;;;;;;;20.00;99.90;;;;;;5034642;28;19921;-77
2021/07/13 01:01:30;;;;;;;;;;;20.00;99.90;;;;;;5036526;28;19917;-78
2021/07/13 01:03:56;;;;;;;;;;;20.00;99.90;;;;;;5035701;28;19913;-77
2021/07/13 01:06:22;;;;;;;;;;;20.00;99.90;;;;;;5018482;28;21744;-76
2021/07/13 01:09:00;;;;;;;;;;;20.00;99.90;;;;;;5037309;28;19913;-78
2021/07/13 01:11:46;;;;;;;;;;;20.00;99.90;;;;;;5037684;28;19921;-78
2021/07/13 01:14:30;;;;;;;;;;;20.10;99.90;;;;;;5037079;28;20300;-78
2021/07/13 01:17:25;;;;;;;;;;;20.00;99.90;;;;;;5036250;28;20212;-79
2021/07/13 01:20:06;;;;;;;;;;;20.00;99.90;;;;;;5030923;28;19913;-77
2021/07/13 01:22:36;;;;;;;;;;;20.10;99.90;;;;;;5027576;28;19913;-79
2021/07/13 01:25:05;;;;;;;;;;;20.00;99.90;;;;;;5017230;28;19917;-78
2021/07/13 01:27:30;;;;;;;;;;;20.10;99.90;;;;;;5037447;28;19913;-78
2021/07/13 01:29:56;;;;;;;;;;;20.10;99.90;;;;;;5036765;28;19921;-78
2021/07/13 01:32:26;;;;;;;;;;;20.10;99.90;;;;;;5036036;28;19917;-79
2021/07/13 01:34:56;;;;;;;;;;;20.10;99.90;;;;;;5032240;28;19992;-79
2021/07/13 01:37:22;;;;;;;;;;;20.10;99.90;;;;;;5036149;28;20001;-78
2021/07/13 01:39:50;;;;;;;;;;;20.00;99.90;;;;;;5015273;28;19965;-79
2021/07/13 01:42:16;;;;;;;;;;;20.00;99.90;;;;;;5012818;28;19917;-81
2021/07/13 01:44:44;;;;;;;;;;;20.10;99.90;;;;;;5012704;28;19951;-79
2021/07/13 01:47:11;;;;;;;;;;;20.00;99.90;;;;;;5034268;28;19913;-79
2021/07/13 01:49:37;;;;;;;;;;;20.00;99.90;;;;;;5010551;28;20288;-77
2021/07/13 01:52:03;;;;;;;;;;;20.00;99.90;;;;;;5036681;28;19917;-79
2021/07/13 01:54:29;;;;;;;;;;;20.00;99.90;;;;;;5032088;28;20328;-79
2021/07/13 01:56:57;;;;;;;;;;;20.00;99.90;;;;;;5018974;28;20007;-78
2021/07/13 01:59:23;;;;;;;;;;;19.90;99.90;;;;;;5031540;28;20261;-79
2021/07/13 02:01:49;;;;;;;;;;;19.90;99.90;;;;;;5015407;28;19925;-79
2021/07/13 02:04:16;;;;;;;;;;;19.80;99.90;;;;;;5028182;28;19913;-78
2021/07/13 02:06:42;;;;;;;;;;;19.80;99.90;;;;;;5019109;28;19913;-79
2021/07/13 02:09:09;;;;;;;;;;;19.80;99.90;;;;;;5032855;28;20289;-78
2021/07/13 02:11:35;;;;;;;;;;;19.80;99.90;;;;;;5036422;28;20305;-79
2021/07/13 02:14:01;;;;;;;;;;;19.70;99.90;;;;;;5018487;28;19924;-80
2021/07/13 02:16:26;;;;;;;;;;;19.70;99.90;;;;;;5034919;28;19913;-79
2021/07/13 02:18:52;;;;;;;;;;;19.60;99.90;;;;;;5034713;28;19917;-79
2021/07/13 02:21:18;;;;;;;;;;;19.60;99.90;;;;;;5035255;28;19917;-78
2021/07/13 02:23:44;;;;;;;;;;;19.60;99.90;;;;;;5007472;28;19917;-78
2021/07/13 02:26:21;;;;;;;;;;;19.60;99.90;;;;;;5017899;28;19913;-80
2021/07/13 02:28:47;;;;;;;;;;;19.60;99.90;;;;;;5012459;28;19921;-78
2021/07/13 02:31:13;;;;;;;;;;;19.60;99.90;;;;;;5035927;28;19921;-79
2021/07/13 02:33:49;;;;;;;;;;;19.60;99.90;;;;;;5048950;28;19979;-77
2021/07/13 02:36:17;;;;;;;;;;;19.60;99.90;;;;;;5034747;28;19943;-80
2021/07/13 02:38:45;;;;;;;;;;;19.50;99.90;;;;;;5035074;28;20212;-78
2021/07/13 02:41:10;;;;;;;;;;;19.60;99.90;;;;;;5025041;28;19968;-79
2021/07/13 02:43:36;;;;;;;;;;;19.50;99.90;;;;;;5032676;28;19960;-78
2021/07/13 02:46:02;;;;;;;;;;;19.50;99.90;;;;;;5032504;28;19913;-77
2021/07/13 02:48:28;;;;;;;;;;;19.50;99.90;;;;;;5050406;28;20254;-80
2021/07/13 02:50:55;;;;;;;;;;;19.40;99.90;;;;;;5021750;28;19924;-78
2021/07/13 02:53:22;;;;;;;;;;;19.40;99.90;;;;;;5033934;28;19967;-79
2021/07/13 02:55:48;;;;;;;;;;;19.40;99.90;;;;;;5020542;28;19944;-79
2021/07/13 02:58:14;;;;;;;;;;;19.40;99.90;;;;;;5036172;28;20008;-79
2021/07/13 03:00:40;;;;;;;;;;;19.40;99.90;;;;;;5035222;28;20007;-79
2021/07/13 03:03:06;;;;;;;;;;;19.40;99.90;;;;;;5035931;28;20016;-79
2021/07/13 03:05:32;;;;;;;;;;;19.40;99.90;;;;;;5034003;28;19913;-80
2021/07/13 03:07:58;;;;;;;;;;;19.40;99.90;;;;;;5034292;28;19917;-77
2021/07/13 03:10:24;;;;;;;;;;;19.40;99.90;;;;;;5034126;28;19921;-79
2021/07/13 03:12:54;;;;;;;;;;;19.50;99.90;;;;;;5016365;28;19982;-78
2021/07/13 03:15:21;;;;;;;;;;;19.60;99.90;;;;;;5015650;28;19917;-79
2021/07/13 03:17:46;;;;;;;;;;;19.60;99.90;;;;;;5034312;28;19922;-79
2021/07/13 03:20:12;;;;;;;;;;;19.60;99.90;;;;;;5035303;28;20296;-78
2021/07/13 03:22:39;;;;;;;;;;;19.50;99.90;;;;;;5017291;28;20220;-82
2021/07/13 03:25:05;;;;;;;;;;;19.50;99.90;;;;;;5034223;28;20563;-79
2021/07/13 03:27:32;;;;;;;;;;;19.60;99.90;;;;;;5033430;28;20007;-78
2021/07/13 03:29:58;;;;;;;;;;;19.50;99.90;;;;;;5034096;28;20232;-77
2021/07/13 03:32:24;;;;;;;;;;;19.50;99.90;;;;;;5033496;28;19913;-82
2021/07/13 03:34:52;;;;;;;;;;;19.50;99.90;;;;;;5035161;28;20003;-78
2021/07/13 03:37:19;;;;;;;;;;;19.50;99.90;;;;;;5033444;28;19919;-78
2021/07/13 03:39:44;;;;;;;;;;;19.50;99.90;;;;;;5030411;28;19931;-78
2021/07/13 03:42:10;;;;;;;;;;;19.50;99.90;;;;;;5032897;28;20250;-77
2021/07/13 03:44:36;;;;;;;;;;;19.50;99.90;;;;;;5034842;28;19936;-77
2021/07/13 03:47:02;;;;;;;;;;;19.50;99.90;;;;;;5032687;28;19928;-79
2021/07/13 03:49:28;;;;;;;;;;;19.50;99.90;;;;;;5032506;28;19983;-80
2021/07/13 03:51:54;;;;;;;;;;;19.50;99.90;;;;;;5032000;28;20311;-78
2021/07/13 03:54:20;;;;;;;;;;;19.50;99.90;;;;;;5033294;28;19913;-79
2021/07/13 03:56:46;;;;;;;;;;;19.50;99.90;;;;;;5032061;28;19925;-77
2021/07/13 03:59:12;;;;;;;;;;;19.50;99.90;;;;;;5032319;28;19959;-80
2021/07/13 04:01:38;;;;;;;;;;;19.50;99.90;;;;;;5032182;28;19917;-79
2021/07/13 04:04:04;;;;;;;;;;;19.40;99.90;;;;;;5032431;28;19928;-78
2021/07/13 04:06:30;;;;;;;;;;;19.40;99.90;;;;;;5033856;28;19916;-78
2021/07/13 04:08:56;;;;;;;;;;;19.40;99.90;;;;;;5033446;28;19917;-82
2021/07/13 04:11:21;;;;;;;;;;;19.40;99.90;;;;;;5032601;28;20258;-78
2021/07/13 04:13:47;;;;;;;;;;;19.40;99.90;;;;;;5033785;28;19917;-80
2021/07/13 04:16:12;;;;;;;;;;;19.40;99.90;;;;;;5033481;28;19920;-77
2021/07/13 04:18:38;;;;;;;;;;;19.40;99.90;;;;;;5031962;28;19917;-79
2021/07/13 04:21:04;;;;;;;;;;;19.40;99.90;;;;;;5031158;28;19971;-80
2021/07/13 04:23:29;;;;;;;;;;;19.40;99.90;;;;;;5032285;28;19921;-79
2021/07/13 04:25:55;;;;;;;;;;;19.50;99.90;;;;;;5032659;28;20022;-77
2021/07/13 04:28:20;;;;;;;;;;;19.50;99.90;;;;;;5031815;28;19921;-78
2021/07/13 04:30:46;;;;;;;;;;;19.40;99.90;;;;;;5033255;28;19928;-78
2021/07/13 04:33:12;;;;;;;;;;;19.40;99.90;;;;;;5031841;28;20003;-79
2021/07/13 04:35:39;;;;;;;;;;;19.50;99.90;;;;;;5046678;28;19967;-79
2021/07/13 04:38:05;;;;;;;;;;;19.40;99.90;;;;;;5029934;28;19920;-81
2021/07/13 04:40:30;;;;;;;;;;;19.40;99.90;;;;;;5030413;28;19913;-80
2021/07/13 04:42:56;;;;;;;;;;;19.40;99.90;;;;;;5032214;28;20270;-78
2021/07/13 04:45:21;;;;;;;;;;;19.40;99.90;;;;;;5032286;28;19917;-79
2021/07/13 04:47:47;;;;;;;;;;;19.40;99.90;;;;;;5034102;28;19940;-79
2021/07/13 04:50:12;;;;;;;;;;;19.40;99.90;;;;;;5011720;28;20443;-80
2021/07/13 04:52:38;;;;;;;;;;;19.40;99.90;;;;;;5016189;28;19927;-78
2021/07/13 04:55:04;;;;;;;;;;;19.40;99.90;;;;;;5029406;28;19921;-78
2021/07/13 04:57:29;;;;;;;;;;;19.40;99.90;;;;;;5024124;28;20015;-78
2021/07/13 04:59:55;;;;;;;;;;;19.40;99.90;;;;;;5015935;28;19921;-78
2021/07/13 05:02:21;;;;;;;;;;;19.50;99.90;;;;;;5031980;28;19925;-77
2021/07/13 05:04:46;;;;;;;;;;;19.50;99.90;;;;;;5030758;28;19920;-77
2021/07/13 05:07:12;;;;;;;;;;;19.40;99.90;;;;;;5032042;28;19920;-82
2021/07/13 05:09:37;;;;;;;;;;;19.40;99.90;;;;;;5028316;28;19921;-78
2021/07/13 05:12:03;;;;;;;;;;;19.40;99.90;;;;;;5029608;28;20063;-80
2021/07/13 05:14:29;;;;;;;;;;;19.50;99.90;;;;;;5030546;28;19928;-77
2021/07/13 05:16:54;;;;;;;;;;;19.50;99.90;;;;;;5033275;28;19913;-79
2021/07/13 05:19:20;;;;;;;;;;;19.50;99.90;;;;;;5008865;28;20543;-78
2021/07/13 05:21:54;;;;;;;;;;;19.50;99.90;;;;;;5033304;28;20351;-79
2021/07/13 05:24:20;;;;;;;;;;;19.60;99.90;;;;;;5012308;28;19914;-79
2021/07/13 05:26:45;;;;;;;;;;;19.60;99.90;;;;;;5021939;28;19915;-79
2021/07/13 05:29:11;;;;;;;;;;;19.60;99.90;;;;;;5026083;28;20193;-78
2021/07/13 05:31:37;;;;;;;;;;;19.60;99.90;;;;;;5011819;28;20331;-78
2021/07/13 05:34:02;;;;;;;;;;;19.60;99.90;;;;;;5036475;28;19913;-84
2021/07/13 05:36:28;;;;;;;;;;;19.60;99.90;;;;;;5037170;28;19923;-79
2021/07/13 05:38:54;;;;;;;;;;;19.70;99.90;;;;;;5033734;28;19921;-79
2021/07/13 05:41:21;;;;;;;;;;;19.70;99.90;;;;;;5035042;28;20300;-79
2021/07/13 05:43:46;;;;;;;;;;;19.70;99.90;;;;;;5035302;28;19921;-79
2021/07/13 05:46:12;;;;;;;;;;;19.60;99.90;;;;;;5016496;28;19928;-80
2021/07/13 05:48:38;;;;;;;;;;;19.60;99.90;;;;;;5017457;28;19913;-80
2021/07/13 05:51:03;;;;;;;;;;;19.60;99.90;;;;;;5017855;28;19963;-82
2021/07/13 05:53:29;;;;;;;;;;;19.60;99.90;;;;;;5017708;28;20304;-82
2021/07/13 05:55:54;;;;;;;;;;;19.60;99.90;;;;;;5035811;28;19909;-82
2021/07/13 05:58:22;;;;;;;;;;;19.60;99.90;;;;;;5035719;28;19913;-82
2021/07/13 06:00:48;;;;;;;;;;;19.60;99.90;;;;;;5052129;28;19932;-82
2021/07/13 06:03:14;;;;;;;;;;;19.60;99.90;;;;;;5033794;28;19925;-80
2021/07/13 06:05:40;;;;;;;;;;;19.60;99.90;;;;;;5035055;28;19921;-81
2021/07/13 06:08:06;;;;;;;;;;;19.60;99.90;;;;;;5049296;28;20310;-78
2021/07/13 06:10:32;;;;;;;;;;;19.50;99.90;;;;;;5032186;28;19975;-81
2021/07/13 06:12:57;;;;;;;;;;;19.50;99.90;;;;;;5034342;28;19920;-82
2021/07/13 06:15:23;;;;;;;;;;;19.50;99.90;;;;;;5034963;28;19917;-81
2021/07/13 06:17:48;;;;;;;;;;;19.50;99.90;;;;;;5032909;28;19921;-80
2021/07/13 06:20:14;;;;;;;;;;;19.50;99.90;;;;;;5032487;28;20252;-81
2021/07/13 06:22:40;;;;;;;;;;;19.50;99.90;;;;;;5050201;28;19925;-80
2021/07/13 06:25:06;;;;;;;;;;;19.50;99.90;;;;;;5034024;28;19921;-81
2021/07/13 06:27:32;;;;;;;;;;;19.60;99.90;;;;;;5035402;28;19996;-80
2021/07/13 06:29:57;;;;;;;;;;;19.60;99.90;;;;;;5033734;28;20007;-80
2021/07/13 06:32:23;;;;;;;;;;;19.60;99.90;;;;;;5033075;28;19917;-82
2021/07/13 06:34:49;;;;;;;;;;;19.60;99.90;;;;;;5051315;28;20027;-80
2021/07/13 06:37:14;;;;;;;;;;;19.60;99.90;;;;;;5035841;28;19917;-82
2021/07/13 06:39:40;;;;;;;;;;;19.60;99.90;;;;;;5035443;28;19996;-80
2021/07/13 06:42:05;;;;;;;;;;;19.60;99.90;;;;;;5034236;28;20270;-81
2021/07/13 06:44:31;;;;;;;;;;;19.70;99.90;;;;;;5032534;28;19917;-81
2021/07/13 06:46:56;;;;;;;;;;;19.60;99.90;;;;;;5033672;28;19956;-81
2021/07/13 06:49:22;;;;;;;;;;;19.60;99.90;;;;;;5035288;28;20215;-83
2021/07/13 06:51:48;;;;;;;;;;;19.60;99.90;;;;;;5033928;28;19917;-82
2021/07/13 06:54:13;;;;;;;;;;;19.60;99.90;;;;;;5035424;28;19917;-83
2021/07/13 06:56:39;;;;;;;;;;;19.60;99.90;;;;;;5032450;28;19936;-82
2021/07/13 06:59:04;;;;;;;;;;;19.60;99.90;;;;;;5032887;28;19913;-82
2021/07/13 07:01:30;;;;;;;;;;;19.60;99.90;;;;;;5032739;28;19917;-81
2021/07/13 07:03:55;;;;;;;;;;;19.60;99.90;;;;;;5034656;28;19917;-81
2021/07/13 07:06:21;;;;;;;;;;;19.60;99.90;;;;;;5033651;28;19929;-81
2021/07/13 07:08:46;;;;;;;;;;;19.60;99.90;;;;;;5051071;28;19917;-82
2021/07/13 07:11:12;;;;;;;;;;;19.60;99.90;;;;;;5033308;28;19921;-79
2021/07/13 07:13:38;;;;;;;;;;;19.70;99.90;;;;;;5034245;28;19913;-82
2021/07/13 07:16:04;;;;;;;;;;;19.60;99.90;;;;;;5034256;28;19917;-79
2021/07/13 07:18:29;;;;;;;;;;;19.70;99.90;;;;;;5035052;28;20258;-82
2021/07/13 07:20:55;;;;;;;;;;;19.60;99.90;;;;;;5049826;28;19944;-80
2021/07/13 07:23:20;;;;;;;;;;;19.70;99.90;;;;;;5049775;28;19921;-81
2021/07/13 07:25:46;;;;;;;;;;;19.70;99.90;;;;;;5048496;28;19917;-82
2021/07/13 07:28:11;;;;;;;;;;;19.70;99.90;;;;;;5030886;28;19975;-82
2021/07/13 07:30:37;;;;;;;;;;;19.70;99.90;;;;;;5049711;28;19913;-82
2021/07/13 07:33:03;;;;;;;;;;;19.70;99.90;;;;;;5034165;28;20312;-81
2021/07/13 07:35:29;;;;;;;;;;;19.80;99.90;;;;;;5032748;28;19936;-79
2021/07/13 07:37:54;;;;;;;;;;;19.80;99.90;;;;;;5034007;28;19913;-82
2021/07/13 07:40:21;;;;;;;;;;;19.80;99.90;;;;;;5031358;28;19920;-82
2021/07/13 07:42:49;;;;;;;;;;;19.90;99.90;;;;;;5014481;28;19999;-80
2021/07/13 07:45:15;;;;;;;;;;;19.90;99.90;;;;;;5032067;28;19921;-85
2021/07/13 07:47:40;;;;;;;;;;;19.90;99.90;;;;;;5032316;28;19944;-82
2021/07/13 07:50:06;;;;;;;;;;;19.90;99.90;;;;;;5022764;28;19917;-80
2021/07/13 07:52:32;;;;;;;;;;;19.90;99.90;;;;;;5026413;28;19920;-76
2021/07/13 07:54:58;;;;;;;;;;;19.90;99.90;;;;;;5031898;28;20331;-81
2021/07/13 07:57:24;;;;;;;;;;;19.90;99.90;;;;;;5030466;28;20386;-80
2021/07/13 07:59:49;;;;;;;;;;;19.90;99.90;;;;;;5015719;28;19917;-80
2021/07/13 08:02:16;;;;;;;;;;;19.90;99.90;;;;;;5034100;28;19924;-83
2021/07/13 08:04:41;;;;;;;;;;;19.90;99.90;;;;;;5031013;28;19916;-82
2021/07/13 08:07:07;;;;;;;;;;;19.90;99.90;;;;;;5032210;28;20035;-81
2021/07/13 08:09:33;;;;;;;;;;;19.80;99.90;;;;;;5033648;28;19913;-83
2021/07/13 08:11:58;;;;;;;;;;;19.80;99.90;;;;;;5032903;28;19927;-81
2021/07/13 08:14:24;;;;;;;;;;;19.80;99.90;;;;;;5032799;28;20260;-82
2021/07/13 08:16:53;;;;;;;;;;;19.70;99.90;;;;;;5031437;28;19913;-82
2021/07/13 08:19:19;;;;;;;;;;;19.80;99.90;;;;;;5033078;28;19921;-80
2021/07/13 08:21:45;;;;;;;;;;;19.70;99.90;;;;;;5031047;28;19943;-77
2021/07/13 08:24:11;;;;;;;;;;;19.70;99.90;;;;;;5033534;28;20303;-78
2021/07/13 08:26:37;;;;;;;;;;;19.70;99.90;;;;;;5029990;28;19921;-81
2021/07/13 08:29:02;;;;;;;;;;;19.70;99.90;;;;;;5031818;28;19924;-81
2021/07/13 08:31:28;;;;;;;;;;;19.80;99.90;;;;;;5032834;28;20344;-82
2021/07/13 08:33:53;;;;;;;;;;;19.80;99.90;;;;;;5036152;28;20310;-78
2021/07/13 08:36:19;;;;;;;;;;;19.80;99.90;;;;;;5033419;28;19919;-81
2021/07/13 08:38:45;;;;;;;;;;;19.80;99.90;;;;;;5032030;28;19948;-80
2021/07/13 08:41:11;;;;;;;;;;;19.80;99.90;;;;;;5032592;28;19984;-82
2021/07/13 08:43:37;;;;;;;;;;;19.80;99.90;;;;;;5024032;28;19932;-82
2021/07/13 08:46:02;;;;;;;;;;;19.80;99.90;;;;;;5048809;28;20251;-81
2021/07/13 08:48:28;;;;;;;;;;;19.90;99.90;;;;;;5036929;28;19913;-80
2021/07/13 08:50:55;;;;;;;;;;;19.90;99.90;;;;;;5029178;28;19917;-82
2021/07/13 08:53:20;;;;;;;;;;;19.90;99.90;;;;;;5043290;28;20336;-84
2021/07/13 08:55:46;;;;;;;;;;;19.90;99.90;;;;;;5030940;28;19967;-81
2021/07/13 08:58:14;;;;;;;;;;;20.00;99.90;;;;;;5034229;28;19921;-81
2021/07/13 09:00:39;;;;;;;;;;;20.00;99.90;;;;;;5033346;28;19921;-83
2021/07/13 09:03:20;;;;;;;;;;;20.00;99.90;;;;;;5034949;28;19924;-82
2021/07/13 09:05:50;;;;;;;;;;;20.00;99.90;;;;;;5033102;28;19913;-83
2021/07/13 09:08:17;;;;;;;;;;;20.10;99.90;;;;;;5019967;28;19927;-80
2021/07/13 09:11:03;;;;;;;;;;;20.20;99.90;;;;;;5037850;28;19913;-80
2021/07/13 09:13:30;;;;;;;;;;;20.20;99.90;;;;;;5011692;28;19924;-79
2021/07/13 09:15:57;;;;;;;;;;;20.20;99.90;;;;;;5034653;28;20261;-81
2021/07/13 09:18:30;;;;;;;;;;;20.20;99.90;;;;;;5035678;28;19913;-81
2021/07/13 09:21:12;;;;;;;;;;;20.20;99.90;;;;;;5018194;28;19914;-79
2021/07/13 09:23:58;;;;;;;;;;;20.20;99.90;;;;;;5052024;28;19917;-81
2021/07/13 09:26:36;;;;;;;;;;;20.20;99.90;;;;;;5005834;28;19917;-80
2021/07/13 09:29:01;;;;;;;;;;;20.10;99.90;;;;;;5037254;28;19913;-82
2021/07/13 09:31:27;;;;;;;;;;;20.10;99.90;;;;;;5036394;28;19921;-82
2021/07/13 09:33:52;;;;;;;;;;;20.10;99.90;;;;;;5033073;28;19951;-81
2021/07/13 09:36:18;;;;;;;;;;;20.20;99.90;;;;;;5036755;28;19921;-79
2021/07/13 09:38:44;;;;;;;;;;;20.10;99.90;;;;;;5036335;28;19921;-83
2021/07/13 09:41:14;;;;;;;;;;;20.10;99.90;;;;;;5036945;28;19917;-83
2021/07/13 09:43:47;;;;;;;;;;;20.10;99.90;;;;;;5035086;28;20252;-78
2021/07/13 09:46:24;;;;;;;;;;;20.10;99.90;;;;;;5018826;28;20008;-80
2021/07/13 09:49:05;;;;;;;;;;;20.10;99.90;;;;;;5035558;28;19922;-82
2021/07/13 09:51:31;;;;;;;;;;;20.20;99.90;;;;;;5035190;28;19913;-81
2021/07/13 09:53:56;;;;;;;;;;;20.20;99.90;;;;;;5052792;28;19920;-81
2021/07/13 09:56:41;;;;;;;;;;;20.20;99.90;;;;;;5021240;28;19917;-79
2021/07/13 09:59:07;;;;;;;;;;;20.20;99.90;;;;;;5036766;28;19920;-80
2021/07/13 10:01:33;;;;;;;;;;;20.20;99.90;;;;;;5036795;28;20241;-80
2021/07/13 10:04:02;;;;;;;;;;;20.20;99.90;;;;;;5040226;28;19927;-81
2021/07/13 10:06:29;;;;;;;;;;;20.20;99.90;;;;;;5028133;28;20010;-82
2021/07/13 10:08:56;;;;;;;;;;;20.20;99.90;;;;;;5036712;28;19995;-81
2021/07/13 10:11:22;;;;;;;;;;;20.10;99.90;;;;;;5033190;28;19967;-83
2021/07/13 10:13:47;;;;;;;;;;;20.20;99.90;;;;;;5069732;28;20307;-79
2021/07/13 10:16:13;;;;;;;;;;;20.20;99.90;;;;;;5043493;28;19996;-81
2021/07/13 10:18:39;;;;;;;;;;;20.10;99.90;;;;;;5024537;28;19913;-81
2021/07/13 10:21:04;;;;;;;;;;;20.20;99.90;;;;;;5038138;28;19920;-79
2021/07/13 10:23:30;;;;;;;;;;;20.10;99.90;;;;;;5033873;28;19921;-77
2021/07/13 10:25:55;;;;;;;;;;;20.10;99.90;;;;;;5050475;28;19936;-83
2021/07/13 10:28:30;;;;;;;;;;;20.00;99.90;;;;;;5042426;28;19910;-81
2021/07/13 10:30:56;;;;;;;;;;;20.00;99.90;;;;;;5041204;28;19913;-81
2021/07/13 10:33:27;;;;;;;;;;;20.00;99.90;;;;;;5034010;28;19920;-81
2021/07/13 10:35:53;;;;;;;;;;;20.00;99.90;;;;;;5043874;28;19915;-80
2021/07/13 10:38:23;;;;;;;;;;;20.00;99.90;;;;;;5047589;28;19921;-81
2021/07/13 10:40:51;;;;;;;;;;;20.00;99.90;;;;;;5044232;28;19917;-82
2021/07/13 10:43:18;;;;;;;;;;;20.10;99.90;;;;;;5015955;28;20000;-82
2021/07/13 10:45:44;;;;;;;;;;;20.10;99.90;;;;;;5032501;28;20319;-81
2021/07/13 10:48:17;;;;;;;;;;;20.10;99.90;;;;;;5033324;28;20464;-80
2021/07/13 10:50:42;;;;;;;;;;;20.00;99.90;;;;;;5033005;28;19952;-83
2021/07/13 10:53:14;;;;;;;;;;;20.00;99.90;;;;;;5029920;28;20606;-83
2021/07/13 10:55:42;;;;;;;;;;;20.00;99.90;;;;;;5015031;28;19917;-81
2021/07/13 10:58:11;;;;;;;;;;;20.00;99.90;;;;;;5004376;28;19932;-82
2021/07/13 11:01:07;;;;;;;;;;;20.00;99.90;;;;;;5014395;28;19984;-80
2021/07/13 11:03:32;;;;;;;;;;;19.90;99.90;;;;;;5015613;28;19925;-81
2021/07/13 11:06:04;;;;;;;;;;;19.90;99.90;;;;;;5014531;28;19925;-82
2021/07/13 11:08:46;;;;;;;;;;;19.90;99.90;;;;;;5022662;28;20285;-81
2021/07/13 11:11:18;;;;;;;;;;;19.90;99.90;;;;;;5033837;28;20216;-80
2021/07/13 11:13:44;;;;;;;;;;;20.00;99.90;;;;;;5014618;28;19970;-80
2021/07/13 11:16:11;;;;;;;;;;;19.90;99.90;;;;;;5015992;28;20376;-82
2021/07/13 11:18:37;;;;;;;;;;;20.00;99.90;;;;;;5026654;28;19940;-80
2021/07/13 11:21:15;;;;;;;;;;;20.10;99.90;;;;;;5034216;28;20323;-82
2021/07/13 11:23:40;;;;;;;;;;;20.00;99.90;;;;;;5014620;28;19968;-75
2021/07/13 11:26:07;;;;;;;;;;;20.00;99.90;;;;;;5015488;28;19941;-81
2021/07/13 11:28:33;;;;;;;;;;;20.10;99.90;;;;;;5011040;28;19988;-84
2021/07/13 11:31:02;;;;;;;;;;;20.10;99.90;;;;;;5015514;28;19939;-82
2021/07/13 11:33:28;;;;;;;;;;;20.20;99.90;;;;;;5013409;28;19918;-79
2021/07/13 11:35:55;;;;;;;;;;;20.20;99.90;;;;;;5013656;28;19923;-84
2021/07/13 11:38:24;;;;;;;;;;;20.30;99.90;;;;;;5029428;28;20312;-82
2021/07/13 11:41:10;;;;;;;;;;;20.30;99.90;;;;;;5013641;28;19914;-81
2021/07/13 11:43:36;;;;;;;;;;;20.30;99.90;;;;;;5030601;28;19961;-80
2021/07/13 11:46:14;;;;;;;;;;;20.20;99.90;;;;;;5031170;28;19961;-83
2021/07/13 11:48:40;;;;;;;;;;;20.20;99.90;;;;;;5014417;28;19914;-80
2021/07/13 11:51:08;;;;;;;;;;;20.30;99.90;;;;;;5029220;28;19914;-79
2021/07/13 11:53:34;;;;;;;;;;;20.30;99.90;;;;;;5029383;28;20326;-80
2021/07/13 11:56:00;;;;;;;;;;;20.20;99.90;;;;;;5031083;28;19913;-80
2021/07/13 11:58:27;;;;;;;;;;;20.20;99.90;;;;;;5049678;28;19929;-79
2021/07/13 12:00:53;;;;;;;;;;;20.20;99.90;;;;;;5035250;28;19917;-78
2021/07/13 12:03:26;;;;;;;;;;;20.20;99.90;;;;;;5032422;28;19925;-80
2021/07/13 12:06:08;;;;;;;;;;;20.10;99.90;;;;;;5045956;28;19984;-81
2021/07/13 12:08:33;;;;;;;;;;;20.10;99.90;;;;;;5032536;28;19924;-85
2021/07/13 12:10:59;;;;;;;;;;;20.10;99.90;;;;;;5033333;28;19921;-79
2021/07/13 12:13:25;;;;;;;;;;;20.10;99.90;;;;;;5050314;28;19917;-78
2021/07/13 12:15:50;;;;;;;;;;;20.10;99.90;;;;;;5033081;28;19987;-81
2021/07/13 12:18:16;;;;;;;;;;;20.10;99.90;;;;;;5033554;28;19913;-80
2021/07/13 12:20:41;;;;;;;;;;;20.20;99.90;;;;;;5033634;28;19996;-79
2021/07/13 12:23:07;;;;;;;;;;;20.30;99.90;;;;;;5033269;28;19924;-81
2021/07/13 12:25:32;;;;;;;;;;;20.30;99.90;;;;;;5033051;28;19963;-79
2021/07/13 12:28:11;;;;;;;;;;;20.30;99.90;;;;;;5031537;28;20000;-81
2021/07/13 12:30:36;;;;;;;;;;;20.20;99.90;;;;;;5032620;28;19913;-81
2021/07/13 12:33:03;;;;;;;;;;;20.10;99.90;;;;;;5033288;28;20251;-81
2021/07/13 12:35:28;;;;;;;;;;;20.20;99.90;;;;;;5034431;28;19921;-77
2021/07/13 12:37:54;;;;;;;;;;;20.20;99.90;;;;;;5032354;28;20004;-81
2021/07/13 12:40:19;;;;;;;;;;;20.20;99.90;;;;;;5030142;28;20388;-81
2021/07/13 12:42:47;;;;;;;;;;;20.20;99.90;;;;;;5032375;28;20335;-82
2021/07/13 12:45:12;;;;;;;;;;;20.20;99.90;;;;;;5032520;28;20354;-79
2021/07/13 12:47:38;;;;;;;;;;;20.20;99.90;;;;;;5032283;28;19913;-82
2021/07/13 12:50:06;;;;;;;;;;;20.20;99.90;;;;;;5035280;28;19960;-83
2021/07/13 12:52:47;;;;;;;;;;;20.20;99.90;;;;;;5049993;28;20255;-83
2021/07/13 12:55:15;;;;;;;;;;;20.20;99.90;;;;;;5033821;28;20250;-83
2021/07/13 12:57:42;;;;;;;;;;;20.20;99.90;;;;;;5033224;28;19929;-81
2021/07/13 13:00:10;;;;;;;;;;;20.20;99.90;;;;;;5031874;28;20292;-81
2021/07/13 13:02:36;;;;;;;;;;;20.30;99.90;;;;;;5033037;28;19921;-83
2021/07/13 13:05:03;;;;;;;;;;;20.30;99.90;;;;;;5031558;28;19913;-78
2021/07/13 13:07:28;;;;;;;;;;;20.30;99.90;;;;;;5030362;28;20044;-80
2021/07/13 13:09:54;;;;;;;;;;;20.20;99.90;;;;;;5031669;28;20265;-82
2021/07/13 13:12:19;;;;;;;;;;;20.20;99.90;;;;;;5031854;28;19917;-83
2021/07/13 13:14:45;;;;;;;;;;;20.20;99.90;;;;;;5046320;28;19921;-81
2021/07/13 13:17:16;;;;;;;;;;;20.20;99.90;;;;;;5027803;28;20007;-75
2021/07/13 13:19:42;;;;;;;;;;;20.10;99.90;;;;;;5032000;28;19956;-82
2021/07/13 13:22:08;;;;;;;;;;;20.10;99.90;;;;;;5028055;28;19917;-80
2021/07/13 13:24:34;;;;;;;;;;;20.10;99.90;;;;;;5027854;28;19917;-81
2021/07/13 13:27:00;;;;;;;;;;;20.10;99.90;;;;;;5023021;28;19917;-85
2021/07/13 13:29:26;;;;;;;;;;;20.10;99.90;;;;;;5040952;28;20600;-80
2021/07/13 13:31:51;;;;;;;;;;;20.10;99.90;;;;;;5052351;28;19913;-82
2021/07/13 13:34:18;;;;;;;;;;;20.10;99.90;;;;;;5035219;28;19909;-81
2021/07/13 13:36:43;;;;;;;;;;;20.10;99.90;;;;;;5034479;28;19996;-79
2021/07/13 13:39:17;;;;;;;;;;;20.10;99.90;;;;;;5039192;28;20051;-80
2021/07/13 13:41:43;;;;;;;;;;;20.10;99.90;;;;;;5051687;28;20292;-80
2021/07/13 13:44:09;;;;;;;;;;;20.10;99.90;;;;;;5034045;28;19921;-81
2021/07/13 13:46:34;;;;;;;;;;;20.00;99.90;;;;;;5032652;28;19936;-78
2021/07/13 13:49:00;;;;;;;;;;;20.10;99.90;;;;;;5036383;28;19940;-81
2021/07/13 13:51:26;;;;;;;;;;;20.10;99.90;;;;;;5046444;28;19916;-81
2021/07/13 13:53:51;;;;;;;;;;;20.10;99.90;;;;;;5034046;28;19956;-82
2021/07/13 13:56:19;;;;;;;;;;;20.10;99.90;;;;;;5036390;28;20007;-82
2021/07/13 13:58:45;;;;;;;;;;;20.10;99.90;;;;;;5013865;28;19913;-82
2021/07/13 14:01:12;;;;;;;;;;;20.10;99.90;;;;;;5049302;28;20605;-80
2021/07/13 14:03:37;;;;;;;;;;;20.10;99.90;;;;;;5033919;28;19979;-79
2021/07/13 14:06:03;;;;;;;;;;;20.10;99.90;;;;;;5035662;28;20372;-81
2021/07/13 14:08:32;;;;;;;;;;;20.10;99.90;;;;;;5032523;28;20534;-80
2021/07/13 14:10:58;;;;;;;;;;;20.10;99.90;;;;;;5033391;28;19921;-81
2021/07/13 14:13:23;;;;;;;;;;;20.10;99.90;;;;;;5034962;28;19917;-81
2021/07/13 14:15:49;;;;;;;;;;;20.00;99.90;;;;;;5034856;28;19932;-82